Terminal Aerodrome Forecast
Issued by NWS

Home | Current Version | Previous Version | Text Only | Print | Product List | Glossary On
Versions: 1 2 3 4 5 6 7 8 9 10 11 12 13 14 15 16 17 18 19 20 21 22 23 24 25 26 27 28 29 30 31 32 33 34 35 36 37 38
000
FTUS46 KOTX 221306 AAA
TAFSFF
TAF AMD
KSFF 221306Z 2213/2312 VRB03KT P6SM SCT015 BKN200
      TEMPO 2213/2216 BKN015 BKN200
     FM221700 23010KT P6SM SCT030 OVC070
      TEMPO 2218/2221 -SHRA BKN030 OVC070
     FM222100 23011KT P6SM SCT030 BKN070
     FM230100 VRB03KT P6SM FEW080 BKN200
     FM230800 00000KT P6SM OVC012=

USA.gov is the U.S. government's official web portal to all federal, state and local government web resources and services.